createdAt,value
2022-11-13T06:03:06.371Z,97.80
2022-11-13T06:08:28.726Z,97.80
2022-11-13T06:13:51.849Z,97.80
2022-11-13T06:19:15.189Z,97.60
2022-11-13T06:24:37.042Z,97.60
2022-11-13T06:29:58.805Z,97.60
2022-11-13T06:35:22.146Z,97.60
2022-11-13T06:40:44.085Z,97.40
2022-11-13T06:46:07.336Z,97.60
2022-11-13T06:51:31.766Z,97.70
2022-11-13T06:56:53.785Z,97.70
2022-11-13T07:02:15.585Z,97.70
2022-11-13T07:07:38.903Z,97.70
2022-11-13T07:13:01.569Z,97.70
2022-11-13T07:18:24.252Z,97.70
2022-11-13T07:23:49.377Z,97.70
2022-11-13T07:29:12.628Z,97.90
2022-11-13T07:34:34.411Z,98.10
2022-11-13T07:39:57.506Z,98.20
2022-11-13T07:45:19.671Z,98.10
2022-11-13T07:50:41.652Z,98.00
2022-11-13T07:56:05.282Z,98.00
2022-11-13T08:01:27.492Z,98.00
2022-11-13T08:06:49.371Z,97.90
2022-11-13T08:12:12.247Z,98.10
2022-11-13T08:17:34.235Z,98.00
2022-11-13T08:22:58.418Z,97.80
2022-11-13T08:28:21.820Z,97.70
2022-11-13T08:33:44.430Z,97.70
2022-11-13T08:39:06.345Z,97.70
2022-11-13T08:44:29.733Z,97.60
2022-11-13T08:49:51.577Z,97.40
2022-11-13T08:55:13.292Z,97.80
2022-11-13T09:00:36.529Z,97.90
2022-11-13T09:05:58.231Z,97.90
2022-11-13T09:11:20.341Z,97.80
2022-11-13T09:16:43.488Z,98.10
2022-11-13T09:22:05.437Z,97.80
2022-11-13T09:27:27.401Z,97.50
2022-11-13T09:32:54.110Z,97.50
2022-11-13T09:38:17.292Z,97.40
2022-11-13T09:43:43.479Z,97.80
2022-11-13T09:49:17.579Z,97.80
2022-11-13T09:54:39.883Z,97.60
2022-11-13T10:00:04.579Z,97.20
2022-11-13T10:05:38.492Z,96.90
2022-11-13T10:11:09.077Z,96.70
2022-11-13T10:16:34.348Z,96.40
2022-11-13T10:22:31.060Z,96.40
2022-11-13T10:27:46.485Z,95.90
2022-11-13T10:33:10.619Z,95.60
2022-11-13T10:38:42.943Z,94.90
2022-11-13T10:44:19.755Z,94.20
2022-11-13T10:49:41.599Z,93.00
2022-11-13T10:55:17.214Z,91.40
2022-11-13T11:00:41.542Z,90.90
2022-11-13T11:06:05.617Z,90.10
2022-11-13T11:11:46.267Z,88.00
2022-11-13T11:17:09.039Z,85.80
2022-11-13T11:22:34.960Z,84.80
2022-11-13T11:28:03.502Z,83.20
2022-11-13T11:33:33.060Z,81.50
2022-11-13T11:39:00.669Z,80.60
2022-11-13T11:44:30.703Z,80.20
2022-11-13T11:49:52.700Z,77.90
2022-11-13T11:55:38.610Z,75.80
2022-11-13T12:01:06.022Z,75.00
2022-11-13T12:06:41.713Z,74.90
2022-11-13T12:12:12.694Z,73.60
2022-11-13T12:17:50.180Z,72.60
2022-11-13T12:23:37.880Z,73.50
2022-11-13T12:29:09.808Z,73.70
2022-11-13T12:34:39.308Z,73.30
2022-11-13T12:40:06.961Z,72.50
2022-11-13T12:45:41.463Z,71.20
2022-11-13T12:51:07.661Z,70.90
2022-11-13T12:56:33.911Z,70.00
2022-11-13T13:02:05.285Z,69.50
2022-11-13T13:07:45.215Z,69.10
2022-11-13T13:13:20.964Z,68.30
2022-11-13T13:18:45.751Z,68.10
2022-11-13T13:24:30.102Z,68.20
2022-11-13T13:29:51.967Z,68.00
2022-11-13T13:35:18.821Z,68.40
2022-11-13T13:40:54.023Z,68.00
2022-11-13T13:46:18.865Z,66.80
2022-11-13T13:51:43.778Z,67.00
2022-11-13T13:57:12.208Z,66.50
2022-11-13T14:02:34.005Z,65.30
2022-11-13T14:07:56.327Z,64.30
2022-11-13T14:13:26.717Z,63.90
2022-11-13T14:18:48.484Z,63.50
2022-11-13T14:24:16.290Z,64.10
2022-11-13T14:29:46.088Z,64.20
2022-11-13T14:35:09.766Z,64.80
2022-11-13T14:40:33.984Z,65.10
2022-11-13T14:45:59.600Z,65.10
2022-11-13T14:51:25.690Z,65.80
2022-11-13T14:56:47.470Z,66.10
2022-11-13T15:02:12.979Z,67.00
2022-11-13T15:07:35.658Z,67.80
2022-11-13T15:12:57.657Z,68.50
2022-11-13T15:18:21.209Z,69.80
2022-11-13T15:23:43.020Z,70.70
2022-11-13T15:29:05.342Z,70.80
2022-11-13T15:34:28.652Z,71.10
2022-11-13T15:39:50.330Z,72.00
2022-11-13T15:45:16.419Z,72.90
2022-11-13T15:50:39.819Z,73.80
2022-11-13T15:56:05.069Z,74.50
2022-11-13T16:01:26.932Z,75.30
2022-11-13T16:06:50.553Z,76.10
2022-11-13T16:12:13.560Z,77.20
2022-11-13T16:17:42.427Z,78.00
2022-11-13T16:23:05.483Z,78.60
2022-11-13T16:28:27.159Z,79.50
2022-11-13T16:33:48.764Z,80.20
2022-11-13T16:39:17.100Z,80.70
2022-11-13T16:44:39.251Z,81.30
2022-11-13T16:50:02.075Z,81.70
2022-11-13T16:55:25.339Z,82.30
2022-11-13T17:00:47.180Z,82.70
2022-11-13T17:06:14.186Z,83.00
2022-11-13T17:11:37.240Z,83.40
2022-11-13T17:16:58.915Z,84.00
2022-11-13T17:22:20.519Z,84.50
2022-11-13T17:27:44.352Z,85.00
2022-11-13T17:33:06.035Z,85.40
2022-11-13T17:38:28.743Z,86.00
2022-11-13T17:43:52.380Z,86.50
2022-11-13T17:49:17.054Z,87.20
2022-11-13T17:54:38.904Z,87.80
2022-11-13T18:00:01.925Z,88.50
2022-11-13T18:05:24.137Z,88.80
2022-11-13T18:10:45.914Z,88.90
2022-11-13T18:16:11.038Z,89.40
2022-11-13T18:21:34.536Z,89.90
2022-11-13T18:26:56.785Z,90.00
2022-11-13T18:32:20.065Z,90.00
2022-11-13T18:37:41.985Z,90.10
2022-11-13T18:43:03.731Z,90.40
2022-11-13T18:48:30.866Z,90.50
2022-11-13T18:53:53.258Z,90.60
2022-11-13T18:59:15.020Z,90.80
2022-11-13T19:04:38.166Z,90.80
2022-11-13T19:09:59.904Z,91.00
2022-11-13T19:15:21.482Z,90.90
2022-11-13T19:20:44.604Z,90.90
2022-11-13T19:26:07.231Z,90.90
2022-11-13T19:31:29.229Z,90.90
2022-11-13T19:36:53.114Z,91.00
2022-11-13T19:42:14.921Z,91.10
2022-11-13T19:47:36.688Z,91.10
2022-11-13T19:52:59.869Z,91.40
2022-11-13T19:58:21.762Z,91.60
2022-11-13T20:03:44.067Z,91.60
2022-11-13T20:09:07.780Z,91.80
2022-11-13T20:14:34.371Z,91.70
2022-11-13T20:19:59.211Z,91.70
2022-11-13T20:25:22.962Z,91.70
2022-11-13T20:30:45.284Z,91.80
2022-11-13T20:36:08.183Z,92.00
2022-11-13T20:41:31.460Z,92.10
2022-11-13T20:46:53.120Z,92.10
2022-11-13T20:52:14.932Z,92.20
2022-11-13T20:57:41.024Z,92.30
2022-11-13T21:03:03.766Z,92.40
2022-11-13T21:08:26.499Z,92.50
2022-11-13T21:13:51.364Z,92.50
2022-11-13T21:19:13.549Z,92.40
2022-11-13T21:24:37.902Z,92.60
2022-11-13T21:30:01.336Z,92.70
2022-11-13T21:35:23.027Z,92.70
2022-11-13T21:41:04.718Z,92.70
2022-11-13T21:46:29.838Z,92.80
2022-11-13T21:51:51.298Z,92.80
2022-11-13T21:57:14.330Z,92.60
2022-11-13T22:02:37.727Z,92.70
2022-11-13T22:07:59.577Z,92.70
2022-11-13T22:13:21.132Z,92.80
2022-11-13T22:18:44.297Z,92.90
2022-11-13T22:24:07.817Z,92.90
2022-11-13T22:29:29.539Z,92.90
2022-11-13T22:34:52.562Z,92.90
2022-11-13T22:40:14.630Z,93.00
2022-11-13T22:45:36.537Z,92.90
2022-11-13T22:51:03.949Z,93.00
2022-11-13T22:56:27.329Z,93.10
2022-11-13T23:01:49.098Z,93.20
2022-11-13T23:07:12.322Z,93.30
2022-11-13T23:12:34.145Z,93.20
2022-11-13T23:17:55.781Z,93.30
2022-11-13T23:23:18.808Z,93.40
2022-11-13T23:28:40.842Z,93.40
